Lakes of Four Seasons, Indiana
Current Conditions -  °F | °C
As of 10:15 PM on Saturday 25 Oct 2014 (Local Time) from KIGQ Reporting Station
Clear Clear  
Wind Chill: 14°   Ceiling: Unl
Heat Index: 14°   Visibility: 10mi
Dew Point: -1°   Wind: 8mph
Humidity: 36%   Direction: 310°NW
Pressure: 29.97"   Gusts: NA
Location:  41.4039°N, 87.3294°W
Report Text: KIGQ 260315Z AUTO 31007KT 10SM CLR 14/M01 A2997 RMK AO2 T01421006
Loading
Personal Weather Stations






























Interactive Weather Map
Tropical Storm Tracking
New forecast layout! Learn more

10-Day Weather Forecast

Advertisements
Track Severe Weather on mobile